Time;durP1;ratioP1;P1;durP2;ratioP2;P2;SDS_P1;SDS_P2;PMS_P1;PMS_P2;Temp;Humidity;BMP_temperature;BMP_pressure;BME280_temperature;BME280_humidity;BME280_pressure;Samples;Min_cycle;Max_cycle;Signal;HPM_P1;HPM_P2
2023/02/01 00:00:48;;;;;;;29.45;15.23;;;7.30;99.90;;;;;;2091808;28;20079;-70
2023/02/01 00:01:49;;;;;;;23.50;12.90;;;7.30;99.90;;;;;;2093693;28;20182;-70
2023/02/01 00:02:50;;;;;;;28.35;12.77;;;7.30;99.90;;;;;;2092902;28;20116;-70
2023/02/01 00:03:50;;;;;;;34.35;12.82;;;7.30;99.90;;;;;;2091424;28;20036;-70
2023/02/01 00:04:51;;;;;;;26.33;13.32;;;7.30;99.90;;;;;;2090919;28;20033;-70
2023/02/01 00:05:57;;;;;;;26.15;12.05;;;7.30;99.90;;;;;;2091486;28;20524;-70
2023/02/01 00:06:57;;;;;;;25.40;12.43;;;7.40;99.90;;;;;;2093276;28;20505;-70
2023/02/01 00:07:58;;;;;;;30.60;12.52;;;7.40;99.90;;;;;;2091295;28;20456;-70
2023/02/01 00:08:58;;;;;;;27.50;12.43;;;7.40;99.90;;;;;;2090601;28;21430;-70
2023/02/01 00:09:59;;;;;;;25.80;11.13;;;7.40;99.90;;;;;;2093208;28;20243;-70
2023/02/01 00:11:10;;;;;;;26.17;11.40;;;7.40;99.90;;;;;;2094424;28;20071;-70
2023/02/01 00:12:11;;;;;;;24.20;11.45;;;7.40;99.90;;;;;;2091569;28;20747;-70
2023/02/01 00:13:12;;;;;;;25.08;11.80;;;7.40;99.90;;;;;;2092581;28;20024;-70
2023/02/01 00:14:13;;;;;;;29.10;11.43;;;7.40;99.90;;;;;;2091047;28;20071;-70
2023/02/01 00:15:13;;;;;;;29.98;11.20;;;7.40;99.90;;;;;;2092637;28;20515;-70
2023/02/01 00:16:17;;;;;;;30.33;11.95;;;7.40;99.90;;;;;;2093563;28;20463;-70
2023/02/01 00:17:18;;;;;;;25.90;10.75;;;7.40;99.90;;;;;;2089017;28;20025;-70
2023/02/01 00:18:19;;;;;;;28.58;10.88;;;7.40;99.90;;;;;;2092569;28;20504;-70
2023/02/01 00:19:19;;;;;;;26.65;10.65;;;7.40;99.90;;;;;;2094127;28;20670;-70
2023/02/01 00:20:20;;;;;;;27.75;10.75;;;7.40;99.90;;;;;;2094553;28;20508;-70
2023/02/01 00:21:21;;;;;;;21.25;10.27;;;7.40;99.90;;;;;;2092922;28;20119;-70
2023/02/01 00:22:21;;;;;;;24.77;10.13;;;7.40;99.90;;;;;;2091316;28;20043;-70
2023/02/01 00:23:22;;;;;;;23.92;10.00;;;7.40;99.90;;;;;;2092094;28;20032;-70
2023/02/01 00:24:22;;;;;;;21.42;9.77;;;7.40;99.90;;;;;;2092366;28;20067;-70
2023/02/01 00:25:23;;;;;;;21.15;9.48;;;7.40;99.90;;;;;;2091966;28;20032;-70
2023/02/01 00:26:41;;;;;;;22.80;9.38;;;7.40;99.90;;;;;;2091633;28;20029;-70
2023/02/01 00:27:41;;;;;;;23.92;9.77;;;7.40;99.90;;;;;;2093056;28;20028;-70
2023/02/01 00:28:42;;;;;;;26.40;10.13;;;7.40;99.90;;;;;;2092130;28;20062;-70
2023/02/01 00:29:44;;;;;;;23.80;9.43;;;7.40;99.90;;;;;;2092889;28;20025;-70
2023/02/01 00:30:45;;;;;;;23.73;10.55;;;7.40;99.90;;;;;;2092656;28;20020;-70
2023/02/01 00:31:46;;;;;;;29.35;9.45;;;7.40;99.90;;;;;;2090743;28;20104;-70
2023/02/01 00:32:46;;;;;;;25.27;8.90;;;7.40;99.90;;;;;;2092492;28;20021;-70
2023/02/01 00:33:48;;;;;;;23.75;8.98;;;7.40;99.90;;;;;;2093020;28;20021;-70
2023/02/01 00:34:48;;;;;;;27.50;8.85;;;7.40;99.90;;;;;;2092909;28;20104;-70
2023/02/01 00:35:49;;;;;;;29.10;9.40;;;7.50;99.90;;;;;;2092380;28;20035;-70
2023/02/01 00:36:49;;;;;;;30.70;8.98;;;7.40;99.90;;;;;;2091946;28;20123;-70
2023/02/01 00:37:50;;;;;;;23.48;9.10;;;7.40;99.90;;;;;;2092795;28;20040;-70
2023/02/01 00:38:50;;;;;;;22.95;8.52;;;7.40;99.90;;;;;;2091629;28;20020;-70
2023/02/01 00:39:51;;;;;;;21.70;7.65;;;7.50;99.90;;;;;;2092727;28;20020;-70
2023/02/01 00:40:52;;;;;;;21.20;7.65;;;7.40;99.90;;;;;;2091516;28;20020;-70
2023/02/01 00:41:52;;;;;;;19.92;7.55;;;7.40;99.90;;;;;;2092077;28;20922;-70
2023/02/01 00:42:53;;;;;;;23.17;8.55;;;7.40;99.90;;;;;;2091599;28;20024;-70
2023/02/01 00:43:53;;;;;;;22.25;7.28;;;7.40;99.90;;;;;;2092909;28;20639;-70
2023/02/01 00:44:54;;;;;;;23.73;7.80;;;7.40;99.90;;;;;;2091191;28;20037;-70
2023/02/01 00:45:54;;;;;;;24.05;7.50;;;7.40;99.90;;;;;;2090319;28;20036;-70
2023/02/01 00:46:55;;;;;;;22.70;7.45;;;7.50;99.90;;;;;;2091903;28;20550;-70
2023/02/01 00:47:55;;;;;;;27.17;8.77;;;7.50;99.90;;;;;;2091370;28;20031;-70
2023/02/01 00:48:56;;;;;;;24.27;8.68;;;7.50;99.90;;;;;;2090581;28;20047;-70
2023/02/01 00:49:57;;;;;;;25.70;7.80;;;7.40;99.90;;;;;;2091683;28;20906;-70
2023/02/01 00:51:06;;;;;;;21.73;7.10;;;7.50;99.90;;;;;;2089548;28;21759;-70
2023/02/01 00:52:06;;;;;;;23.85;7.53;;;7.40;99.90;;;;;;2090983;28;20064;-70
2023/02/01 00:53:08;;;;;;;23.67;7.18;;;7.40;99.90;;;;;;2092196;28;20028;-70
2023/02/01 00:54:08;;;;;;;30.27;7.10;;;7.40;99.90;;;;;;2093320;28;20021;-70
2023/02/01 00:55:09;;;;;;;23.65;7.45;;;7.40;99.90;;;;;;2092174;28;20021;-70
2023/02/01 00:56:10;;;;;;;24.63;7.05;;;7.40;99.90;;;;;;2090278;28;20044;-70
2023/02/01 00:57:10;;;;;;;20.98;6.65;;;7.40;99.90;;;;;;2090884;28;20033;-71
2023/02/01 00:58:11;;;;;;;23.90;7.18;;;7.40;99.90;;;;;;2092449;28;20070;-71
2023/02/01 00:59:12;;;;;;;17.92;7.20;;;7.50;99.90;;;;;;2090706;28;21772;-70
2023/02/01 01:00:13;;;;;;;23.05;6.75;;;7.40;99.90;;;;;;2090449;28;20117;-70
2023/02/01 01:01:20;;;;;;;22.40;7.35;;;7.50;99.90;;;;;;2092846;28;20166;-70
2023/02/01 01:02:20;;;;;;;21.33;7.53;;;7.50;99.90;;;;;;2088377;28;20112;-70
2023/02/01 01:03:21;;;;;;;20.13;6.10;;;7.40;99.90;;;;;;2091438;28;20044;-70
2023/02/01 01:04:22;;;;;;;23.45;6.90;;;7.50;99.90;;;;;;2091091;28;20127;-71
2023/02/01 01:05:22;;;;;;;21.90;6.00;;;7.40;99.90;;;;;;2090903;28;20117;-71
2023/02/01 01:06:26;;;;;;;17.77;5.85;;;7.40;99.90;;;;;;2090498;28;20021;-71
2023/02/01 01:07:28;;;;;;;23.48;6.43;;;7.40;99.90;;;;;;2090745;28;20040;-70
2023/02/01 01:08:29;;;;;;;13.93;5.82;;;7.40;99.90;;;;;;2092273;28;20024;-70
2023/02/01 01:09:29;;;;;;;24.08;6.63;;;7.50;99.90;;;;;;2091996;28;20028;-70
2023/02/01 01:10:30;;;;;;;23.42;6.82;;;7.40;99.90;;;;;;2090285;28;20674;-70
2023/02/01 01:11:34;;;;;;;21.48;6.68;;;7.40;99.90;;;;;;2092398;28;20032;-70
2023/02/01 01:12:35;;;;;;;21.17;5.75;;;7.50;99.90;;;;;;2090717;28;20033;-71
2023/02/01 01:13:36;;;;;;;20.35;6.10;;;7.50;99.90;;;;;;2090947;28;20489;-70
2023/02/01 01:14:36;;;;;;;21.40;5.97;;;7.50;99.90;;;;;;2094787;28;20032;-70
2023/02/01 01:15:38;;;;;;;19.60;6.15;;;7.50;99.90;;;;;;2094836;28;20024;-70
2023/02/01 01:16:39;;;;;;;22.15;5.93;;;7.50;99.90;;;;;;2091869;28;20056;-70
2023/02/01 01:17:39;;;;;;;15.30;5.75;;;7.50;99.90;;;;;;2094219;28;20059;-70
2023/02/01 01:18:40;;;;;;;18.55;6.25;;;7.50;99.90;;;;;;2093474;28;20725;-70
2023/02/01 01:19:41;;;;;;;16.88;5.57;;;7.50;99.90;;;;;;2090553;28;20024;-70
2023/02/01 01:20:41;;;;;;;23.50;5.80;;;7.50;99.90;;;;;;2091454;28;20385;-70
2023/02/01 01:21:42;;;;;;;23.73;5.40;;;7.50;99.90;;;;;;2089534;28;20079;-70
2023/02/01 01:22:42;;;;;;;18.58;5.30;;;7.50;99.90;;;;;;2092244;28;20060;-70
2023/02/01 01:23:44;;;;;;;23.50;6.05;;;7.50;99.90;;;;;;2092914;28;20028;-70
2023/02/01 01:24:45;;;;;;;21.80;5.93;;;7.50;99.90;;;;;;2092676;28;20488;-70
2023/02/01 01:25:45;;;;;;;20.95;5.93;;;7.50;99.90;;;;;;2091141;28;20443;-70
2023/02/01 01:26:46;;;;;;;21.17;5.32;;;7.50;99.90;;;;;;2091641;28;20016;-70
2023/02/01 01:27:47;;;;;;;25.23;6.28;;;7.40;99.90;;;;;;2092765;28;20031;-70
2023/02/01 01:28:48;;;;;;;21.65;5.93;;;7.40;99.90;;;;;;2090659;28;20032;-70
2023/02/01 01:29:49;;;;;;;18.88;5.90;;;7.40;99.90;;;;;;2091718;28;20116;-70
2023/02/01 01:30:49;;;;;;;24.98;6.28;;;7.40;99.90;;;;;;2090593;28;20029;-70
2023/02/01 01:31:50;;;;;;;14.18;5.15;;;7.50;99.90;;;;;;2089603;28;20447;-70
2023/02/01 01:32:52;;;;;;;18.45;6.40;;;7.40;99.90;;;;;;2091343;28;20056;-70
2023/02/01 01:33:55;;;;;;;19.88;5.63;;;7.40;99.90;;;;;;2094675;28;20024;-70
2023/02/01 01:34:55;;;;;;;22.77;6.03;;;7.40;99.90;;;;;;2092421;28;20039;-70
2023/02/01 01:35:56;;;;;;;20.50;6.03;;;7.40;99.90;;;;;;2090190;28;20114;-70
2023/02/01 01:36:56;;;;;;;18.33;5.85;;;7.40;99.90;;;;;;2092009;28;20033;-70
2023/02/01 01:37:58;;;;;;;20.63;6.55;;;7.40;99.90;;;;;;2093800;28;20040;-70
2023/02/01 01:38:58;;;;;;;18.77;5.18;;;7.40;99.90;;;;;;2091563;28;20098;-70
2023/02/01 01:39:59;;;;;;;18.42;5.93;;;7.50;99.90;;;;;;2090299;28;20031;-70
2023/02/01 01:40:59;;;;;;;21.10;6.25;;;7.40;99.90;;;;;;2091665;28;20733;-70
2023/02/01 01:42:00;;;;;;;23.27;6.30;;;7.50;99.90;;;;;;2092929;28;20458;-70
2023/02/01 01:43:00;;;;;;;18.42;6.35;;;7.40;99.90;;;;;;2091489;28;20098;-70
2023/02/01 01:44:04;;;;;;;18.92;5.65;;;7.40;99.90;;;;;;2091403;28;20036;-70
2023/02/01 01:45:12;;;;;;;22.92;7.13;;;7.50;99.90;;;;;;2092535;28;20065;-70
2023/02/01 01:46:19;;;;;;;21.23;6.60;;;7.40;99.90;;;;;;2092971;28;20029;-70
2023/02/01 01:47:20;;;;;;;21.27;6.20;;;7.40;99.90;;;;;;2089894;28;20086;-70
2023/02/01 01:48:27;;;;;;;24.02;7.20;;;7.40;99.90;;;;;;2084134;28;20029;-70
2023/02/01 01:49:28;;;;;;;17.30;5.72;;;7.40;99.90;;;;;;2090387;28;20093;-70
2023/02/01 01:50:33;;;;;;;21.15;6.80;;;7.40;99.90;;;;;;2094019;28;20021;-70
2023/02/01 01:51:57;;;;;;;19.08;6.82;;;7.50;99.90;;;;;;2092414;28;20559;-70
2023/02/01 01:53:01;;;;;;;18.05;5.47;;;7.50;99.90;;;;;;2092120;28;20028;-70
2023/02/01 01:54:21;;;;;;;20.27;5.88;;;7.40;99.90;;;;;;2091848;28;20024;-70
2023/02/01 01:55:24;;;;;;;19.95;6.03;;;7.40;99.90;;;;;;2089713;28;20867;-70
2023/02/01 01:56:27;;;;;;;19.33;5.90;;;7.40;99.90;;;;;;2090349;28;20036;-70
2023/02/01 01:57:32;;;;;;;15.45;5.72;;;7.40;99.90;;;;;;2091286;28;20024;-70
2023/02/01 01:58:34;;;;;;;24.95;6.57;;;7.40;99.90;;;;;;2091904;28;20039;-70
2023/02/01 01:59:36;;;;;;;22.65;6.28;;;7.40;99.90;;;;;;2090084;28;20123;-70
2023/02/01 02:00:38;;;;;;;18.63;6.95;;;7.40;99.90;;;;;;2083505;28;20048;-70
2023/02/01 02:01:39;;;;;;;21.77;6.72;;;7.40;99.90;;;;;;2084341;28;20061;-70
2023/02/01 02:02:42;;;;;;;21.60;6.38;;;7.40;99.90;;;;;;2089686;28;20609;-70
2023/02/01 02:03:45;;;;;;;14.55;5.53;;;7.40;99.90;;;;;;2091945;28;20123;-70
2023/02/01 02:04:46;;;;;;;22.23;6.30;;;7.50;99.90;;;;;;2091583;28;20362;-70
2023/02/01 02:05:50;;;;;;;21.23;7.93;;;7.50;99.90;;;;;;2088137;28;20033;-70
2023/02/01 02:07:04;;;;;;;22.23;6.80;;;7.50;99.90;;;;;;2090383;28;20784;-70
2023/02/01 02:08:05;;;;;;;23.50;6.15;;;7.50;99.90;;;;;;2089446;28;20167;-70
2023/02/01 02:09:06;;;;;;;20.00;6.72;;;7.50;99.90;;;;;;2089890;28;20025;-70
2023/02/01 02:10:11;;;;;;;21.08;6.82;;;7.50;99.90;;;;;;2090306;28;20546;-70
2023/02/01 02:11:16;;;;;;;26.88;6.97;;;7.50;99.90;;;;;;2088928;28;20055;-70
2023/02/01 02:12:16;;;;;;;22.10;6.53;;;7.50;99.90;;;;;;2090815;28;20036;-70
2023/02/01 02:13:18;;;;;;;21.65;6.55;;;7.50;99.90;;;;;;2090489;28;20064;-70
2023/02/01 02:14:22;;;;;;;25.35;7.50;;;7.50;99.90;;;;;;2090920;28;20028;-70
2023/02/01 02:15:23;;;;;;;18.10;5.57;;;7.50;99.90;;;;;;2088951;28;20492;-70
2023/02/01 02:16:46;;;;;;;23.45;6.13;;;7.50;99.90;;;;;;2092488;28;20043;-70
2023/02/01 02:18:05;;;;;;;20.65;6.22;;;7.50;99.90;;;;;;2092826;28;20490;-70
2023/02/01 02:19:24;;;;;;;22.92;6.63;;;7.50;99.90;;;;;;2091865;28;20029;-70
2023/02/01 02:20:58;;;;;;;18.60;6.35;;;7.40;99.90;;;;;;2090700;28;20484;-70
2023/02/01 02:22:24;;;;;;;23.38;6.40;;;7.40;99.90;;;;;;2089876;28;20032;-70
2023/02/01 02:24:06;;;;;;;22.35;7.38;;;7.40;99.90;;;;;;2089630;28;20075;-70
2023/02/01 02:25:25;;;;;;;25.75;7.15;;;7.40;99.90;;;;;;2088357;28;20476;-70
2023/02/01 02:27:24;;;;;;;22.60;7.32;;;7.40;99.90;;;;;;2089062;28;20036;-70
2023/02/01 02:29:01;;;;;;;22.67;6.43;;;7.40;99.90;;;;;;2092869;28;20023;-70
2023/02/01 02:30:31;;;;;;;24.17;7.10;;;7.30;99.90;;;;;;2085710;28;20025;-71
2023/02/01 02:32:04;;;;;;;23.90;6.93;;;7.30;99.90;;;;;;2091463;28;20029;-70
2023/02/01 02:33:26;;;;;;;22.35;7.25;;;7.30;99.90;;;;;;2088433;28;20460;-70
2023/02/01 02:34:32;;;;;;;18.88;6.50;;;7.30;99.90;;;;;;2089811;28;20033;-70
2023/02/01 02:35:53;;;;;;;19.95;6.07;;;7.30;99.90;;;;;;2089927;28;20468;-70
2023/02/01 02:37:19;;;;;;;23.83;6.20;;;7.30;99.90;;;;;;2092032;28;20041;-70
2023/02/01 02:38:41;;;;;;;19.45;6.53;;;7.30;99.90;;;;;;2091465;28;20040;-70
2023/02/01 02:40:17;;;;;;;19.10;6.85;;;7.30;99.90;;;;;;2087830;28;20032;-70
2023/02/01 02:48:41;;;;;;;17.60;5.88;;;7.30;99.90;;;;;;2088014;28;20025;-70
2023/02/01 02:54:45;;;;;;;25.15;6.55;;;7.30;99.90;;;;;;2089680;28;20033;-70
2023/02/01 02:54:51;;;;;;;19.08;6.00;;;7.20;99.90;;;;;;2090639;28;20388;-70
2023/02/01 02:55:52;;;;;;;;;;;7.20;99.90;;;;;;2090549;28;20028;-70
2023/02/01 03:04:58;;;;;;;18.80;5.72;;;7.20;99.90;;;;;;2089350;28;20040;-70
2023/02/01 03:05:59;;;;;;;20.20;6.00;;;7.20;99.90;;;;;;2091588;28;20047;-70
2023/02/01 03:07:44;;;;;;;18.75;5.78;;;7.30;99.90;;;;;;2091144;28;20036;-70
2023/02/01 03:08:46;;;;;;;28.58;5.90;;;7.20;99.90;;;;;;2073721;28;20030;-70
2023/02/01 03:09:48;;;;;;;17.80;5.72;;;7.20;99.90;;;;;;2090070;28;20298;-70
2023/02/01 03:11:02;;;;;;;17.15;5.25;;;7.20;99.90;;;;;;2092291;28;20033;-70
2023/02/01 03:13:58;;;;;;;24.55;5.75;;;7.20;99.90;;;;;;2090908;28;20025;-70
2023/02/01 03:15:08;;;;;;;27.13;5.35;;;7.20;99.90;;;;;;2090283;28;20029;-70
2023/02/01 03:16:30;;;;;;;21.23;5.53;;;7.20;99.90;;;;;;2089727;28;20021;-70
2023/02/01 03:17:38;;;;;;;20.55;5.57;;;7.20;99.90;;;;;;2091535;28;20037;-70
2023/02/01 03:19:00;;;;;;;19.73;5.72;;;7.20;99.90;;;;;;2092040;28;20029;-70
2023/02/01 03:20:03;;;;;;;22.10;5.80;;;7.20;99.90;;;;;;2090463;28;20154;-70
2023/02/01 03:21:10;;;;;;;15.80;4.82;;;7.20;99.90;;;;;;2090946;28;20037;-70
2023/02/01 03:22:16;;;;;;;15.90;4.68;;;7.20;99.90;;;;;;2090305;28;20136;-70
2023/02/01 03:23:20;;;;;;;26.35;6.25;;;7.10;99.90;;;;;;2090278;28;20435;-70
2023/02/01 03:24:35;;;;;;;21.45;5.18;;;7.20;99.90;;;;;;2089648;28;20508;-70
2023/02/01 03:25:35;;;;;;;17.27;4.78;;;7.20;99.90;;;;;;2092278;28;20033;-70
2023/02/01 03:26:41;;;;;;;23.60;5.07;;;7.20;99.90;;;;;;2092026;28;20113;-70
2023/02/01 03:27:54;;;;;;;19.23;5.28;;;7.20;99.90;;;;;;2092292;28;20021;-70
2023/02/01 03:29:02;;;;;;;18.70;5.88;;;7.20;99.90;;;;;;2091243;28;20039;-70
2023/02/01 03:30:23;;;;;;;30.33;6.22;;;7.20;99.90;;;;;;2092743;28;20032;-70
2023/02/01 03:31:24;;;;;;;22.85;5.47;;;7.20;99.90;;;;;;2092488;28;20028;-70
2023/02/01 03:32:25;;;;;;;21.92;5.78;;;7.20;99.90;;;;;;2094190;28;20538;-70
2023/02/01 03:33:29;;;;;;;20.13;5.15;;;7.20;99.90;;;;;;2092054;28;20488;-70
2023/02/01 03:34:30;;;;;;;23.65;5.65;;;7.20;99.90;;;;;;2093978;28;20033;-70
2023/02/01 03:35:43;;;;;;;16.83;5.40;;;7.20;99.90;;;;;;2090076;28;20033;-70
2023/02/01 03:36:50;;;;;;;21.52;6.05;;;7.20;99.90;;;;;;2092035;28;20112;-70
2023/02/01 03:37:54;;;;;;;22.58;5.38;;;7.20;99.90;;;;;;2093079;28;20043;-70
2023/02/01 03:39:27;;;;;;;15.75;4.50;;;7.20;99.90;;;;;;2092109;28;20477;-70
2023/02/01 03:40:33;;;;;;;24.20;5.93;;;7.20;99.90;;;;;;2091385;28;20028;-70
2023/02/01 03:41:44;;;;;;;19.52;4.95;;;7.10;99.90;;;;;;2092809;28;20060;-70
2023/02/01 03:42:50;;;;;;;22.60;6.07;;;7.20;99.90;;;;;;2093402;28;20025;-70
2023/02/01 03:43:56;;;;;;;20.42;4.63;;;7.20;99.90;;;;;;2096644;28;20028;-70
2023/02/01 03:45:20;;;;;;;21.13;5.45;;;7.20;99.90;;;;;;2096704;28;20074;-70
2023/02/01 03:46:32;;;;;;;17.85;4.30;;;7.20;99.90;;;;;;2089762;28;20452;-70
2023/02/01 03:47:37;;;;;;;23.65;5.25;;;7.20;99.90;;;;;;2092503;28;20075;-70
2023/02/01 03:48:40;;;;;;;19.83;4.93;;;7.10;99.90;;;;;;2092290;28;20070;-70
2023/02/01 03:49:44;;;;;;;15.27;4.78;;;7.20;99.90;;;;;;2091076;28;20024;-70
2023/02/01 03:50:51;;;;;;;19.02;5.53;;;7.20;99.90;;;;;;2091852;28;20070;-70
2023/02/01 03:51:54;;;;;;;20.02;5.80;;;7.20;99.90;;;;;;2093971;28;20017;-70
2023/02/01 03:53:02;;;;;;;20.13;5.95;;;7.20;99.90;;;;;;2093621;28;20048;-70
2023/02/01 03:54:05;;;;;;;23.58;5.55;;;7.20;99.90;;;;;;2093396;28;20025;-70
2023/02/01 03:55:07;;;;;;;16.92;4.60;;;7.20;99.90;;;;;;2091016;28;20047;-70
2023/02/01 03:56:11;;;;;;;18.20;4.50;;;7.20;99.90;;;;;;2089388;28;20457;-70
2023/02/01 03:57:16;;;;;;;24.45;5.28;;;7.20;99.90;;;;;;2090909;28;20417;-70
2023/02/01 03:58:19;;;;;;;19.65;5.30;;;7.20;99.90;;;;;;2094418;28;20028;-70
2023/02/01 03:59:20;;;;;;;22.17;5.30;;;7.20;99.90;;;;;;2090459;28;20179;-70
2023/02/01 04:00:23;;;;;;;18.27;5.10;;;7.20;99.90;;;;;;2092856;28;20090;-70
2023/02/01 04:01:28;;;;;;;18.45;4.70;;;7.20;99.90;;;;;;2090026;28;20037;-70
2023/02/01 04:02:28;;;;;;;20.33;7.00;;;7.20;99.90;;;;;;2090564;28;20036;-70
2023/02/01 04:03:29;;;;;;;22.67;5.63;;;7.20;99.90;;;;;;2092374;28;20041;-70
2023/02/01 04:04:30;;;;;;;22.60;5.15;;;7.20;99.90;;;;;;2089411;28;20037;-70
2023/02/01 04:05:31;;;;;;;23.73;5.20;;;7.20;99.90;;;;;;2091489;28;20056;-70
2023/02/01 04:06:31;;;;;;;19.55;4.85;;;7.20;99.90;;;;;;2091915;28;20033;-70
2023/02/01 04:07:32;;;;;;;28.50;5.60;;;7.20;99.90;;;;;;2092012;28;20052;-70
2023/02/01 04:08:32;;;;;;;27.65;6.53;;;7.20;99.90;;;;;;2092579;28;20033;-70
2023/02/01 04:09:33;;;;;;;19.30;4.35;;;7.20;99.90;;;;;;2092568;28;20111;-70
2023/02/01 04:10:33;;;;;;;23.02;6.00;;;7.20;99.90;;;;;;2091456;28;20465;-70
2023/02/01 04:11:34;;;;;;;17.80;5.35;;;7.20;99.90;;;;;;2092112;28;20115;-70
2023/02/01 04:12:34;;;;;;;23.67;5.95;;;7.20;99.90;;;;;;2092304;28;20021;-70
2023/02/01 04:13:35;;;;;;;19.88;5.15;;;7.20;99.90;;;;;;2089437;28;20064;-70
2023/02/01 04:14:35;;;;;;;20.45;5.85;;;7.20;99.90;;;;;;2094208;28;20048;-70
2023/02/01 04:15:36;;;;;;;22.65;5.78;;;7.20;99.90;;;;;;2093308;28;20064;-70
2023/02/01 04:16:36;;;;;;;22.92;4.70;;;7.20;99.90;;;;;;2095189;28;20029;-70
2023/02/01 04:17:37;;;;;;;21.45;6.03;;;7.30;99.90;;;;;;2090659;28;20037;-70
2023/02/01 04:18:37;;;;;;;27.27;7.15;;;7.20;99.90;;;;;;2090042;28;20033;-70
2023/02/01 04:19:38;;;;;;;23.45;5.70;;;7.20;99.90;;;;;;2092480;28;20045;-70
2023/02/01 04:20:38;;;;;;;18.17;5.45;;;7.20;99.90;;;;;;2091807;28;20044;-70
2023/02/01 04:21:39;;;;;;;20.70;5.28;;;7.20;99.90;;;;;;2091727;28;20390;-70
2023/02/01 04:22:39;;;;;;;23.55;6.03;;;7.20;99.90;;;;;;2091929;28;20037;-70
2023/02/01 04:23:40;;;;;;;25.25;6.45;;;7.20;99.90;;;;;;2091463;28;20036;-70
2023/02/01 04:24:40;;;;;;;22.45;5.90;;;7.20;99.90;;;;;;2092821;28;20041;-70
2023/02/01 04:25:41;;;;;;;20.05;5.90;;;7.30;99.90;;;;;;2092267;28;20031;-70
2023/02/01 04:26:42;;;;;;;22.15;5.57;;;7.30;99.90;;;;;;2091954;28;20024;-70
2023/02/01 04:27:43;;;;;;;23.65;5.85;;;7.30;99.90;;;;;;2092524;28;20071;-70
2023/02/01 04:28:47;;;;;;;23.25;5.43;;;7.30;99.90;;;;;;2091293;28;20083;-70
2023/02/01 04:29:49;;;;;;;24.85;5.82;;;7.30;99.90;;;;;;2088218;28;20108;-70
2023/02/01 04:30:50;;;;;;;23.02;5.72;;;7.30;99.90;;;;;;2094177;28;21088;-70
2023/02/01 04:31:50;;;;;;;21.85;5.40;;;7.30;99.90;;;;;;2092920;28;20484;-70
2023/02/01 04:32:51;;;;;;;23.77;6.07;;;7.30;99.90;;;;;;2092301;28;20028;-70
2023/02/01 04:33:52;;;;;;;26.52;6.13;;;7.30;99.90;;;;;;2090430;28;20037;-70
2023/02/01 04:34:53;;;;;;;25.13;5.40;;;7.30;99.90;;;;;;2091884;28;20032;-70
2023/02/01 04:35:53;;;;;;;22.33;5.97;;;7.30;99.90;;;;;;2092129;28;20030;-70
2023/02/01 04:36:54;;;;;;;23.60;5.55;;;7.30;99.90;;;;;;2091705;28;20028;-70
2023/02/01 04:37:54;;;;;;;22.73;5.82;;;7.30;99.90;;;;;;2094177;28;20019;-70
2023/02/01 04:38:55;;;;;;;23.55;5.93;;;7.30;99.90;;;;;;2093181;28;20033;-70
2023/02/01 04:39:56;;;;;;;23.10;6.00;;;7.30;99.90;;;;;;2091799;28;20605;-70
2023/02/01 04:40:56;;;;;;;26.67;6.20;;;7.30;99.90;;;;;;2092040;28;20029;-70
2023/02/01 04:41:57;;;;;;;24.27;5.82;;;7.30;99.90;;;;;;2093135;28;20100;-70
2023/02/01 04:42:57;;;;;;;27.02;6.47;;;7.30;99.90;;;;;;2091682;28;20024;-70
2023/02/01 04:43:58;;;;;;;26.80;7.15;;;7.30;99.90;;;;;;2092103;28;20111;-70
2023/02/01 04:44:58;;;;;;;22.25;6.22;;;7.40;99.90;;;;;;2091279;28;20032;-70
2023/02/01 04:45:59;;;;;;;26.98;7.15;;;7.30;99.90;;;;;;2090275;28;20017;-70
2023/02/01 04:46:59;;;;;;;14.23;5.15;;;7.30;99.90;;;;;;2089778;28;20052;-70
2023/02/01 04:48:00;;;;;;;19.15;5.43;;;7.30;99.90;;;;;;2089746;28;20024;-70
2023/02/01 04:49:00;;;;;;;22.42;5.95;;;7.40;99.90;;;;;;2089801;28;20033;-70
2023/02/01 04:50:01;;;;;;;20.50;6.22;;;7.40;99.90;;;;;;2091677;28;20031;-70
2023/02/01 04:51:01;;;;;;;25.35;6.72;;;7.40;99.90;;;;;;2091921;28;20025;-70
2023/02/01 04:52:02;;;;;;;25.05;6.55;;;7.40;99.90;;;;;;2090954;28;20021;-70
2023/02/01 04:53:02;;;;;;;23.35;6.45;;;7.40;99.90;;;;;;2090795;28;20036;-70
2023/02/01 04:54:03;;;;;;;23.63;6.03;;;7.40;99.90;;;;;;2090921;28;20082;-70
2023/02/01 04:55:04;;;;;;;26.27;6.25;;;7.40;99.90;;;;;;2091332;28;20104;-70
2023/02/01 04:56:06;;;;;;;22.63;6.10;;;7.40;99.90;;;;;;2091347;28;20020;-70
2023/02/01 04:57:06;;;;;;;26.15;6.10;;;7.40;99.90;;;;;;2093217;28;20369;-70
2023/02/01 04:58:07;;;;;;;28.92;6.93;;;7.40;99.90;;;;;;2090308;28;20021;-70
2023/02/01 04:59:07;;;;;;;22.05;5.88;;;7.40;99.90;;;;;;2090223;28;20028;-70
2023/02/01 05:00:09;;;;;;;27.05;6.97;;;7.40;99.90;;;;;;2091035;28;20031;-70
2023/02/01 05:01:10;;;;;;;20.45;6.50;;;7.40;99.90;;;;;;2089431;28;20544;-70
2023/02/01 05:02:10;;;;;;;22.77;6.10;;;7.40;99.90;;;;;;2092878;28;20028;-70
2023/02/01 05:03:11;;;;;;;23.65;6.32;;;7.40;99.90;;;;;;2091432;28;20074;-70
2023/02/01 05:04:11;;;;;;;30.40;6.75;;;7.40;99.90;;;;;;2091980;28;20067;-70
2023/02/01 05:05:12;;;;;;;29.08;6.70;;;7.40;99.90;;;;;;2090400;28;20144;-70
2023/02/01 05:06:12;;;;;;;25.95;6.55;;;7.40;99.90;;;;;;2090066;28;20217;-70
2023/02/01 05:07:13;;;;;;;20.42;5.40;;;7.40;99.90;;;;;;2091614;28;20082;-70
2023/02/01 05:08:14;;;;;;;28.38;6.10;;;7.40;99.90;;;;;;2090424;28;20032;-70
2023/02/01 05:09:15;;;;;;;19.42;5.05;;;7.40;99.90;;;;;;2091348;28;20071;-70
2023/02/01 05:10:16;;;;;;;30.67;5.95;;;7.40;99.90;;;;;;2089403;28;20021;-70
2023/02/01 05:13:54;;;;;;;24.63;5.90;;;7.40;99.90;;;;;;2091187;28;20415;-70
2023/02/01 05:14:55;;;;;;;26.30;6.40;;;7.40;99.90;;;;;;2089768;28;20028;-70
2023/02/01 05:15:55;;;;;;;20.25;5.75;;;7.40;99.90;;;;;;2089099;28;20078;-70
2023/02/01 05:16:56;;;;;;;27.33;6.60;;;7.40;99.90;;;;;;2090948;28;20017;-70
2023/02/01 05:17:57;;;;;;;33.75;6.57;;;7.40;99.90;;;;;;2092075;28;20021;-70
2023/02/01 05:18:57;;;;;;;23.83;6.55;;;7.40;99.90;;;;;;2091473;28;20388;-70
2023/02/01 05:19:58;;;;;;;24.67;6.90;;;7.40;99.90;;;;;;2090373;28;20050;-70
2023/02/01 05:20:58;;;;;;;26.67;6.60;;;7.40;99.90;;;;;;2091892;28;20033;-70
2023/02/01 05:21:59;;;;;;;21.02;6.25;;;7.40;99.90;;;;;;2092586;28;20489;-70
2023/02/01 05:22:59;;;;;;;28.65;6.38;;;7.40;99.90;;;;;;2090767;28;20029;-71
2023/02/01 05:24:09;;;;;;;22.60;6.25;;;7.40;99.90;;;;;;2090384;28;20046;-70
2023/02/01 05:25:09;;;;;;;27.85;6.00;;;7.40;99.90;;;;;;2091613;28;20362;-70
2023/02/01 05:26:10;;;;;;;24.70;6.13;;;7.40;99.90;;;;;;2089551;28;20149;-70
2023/02/01 05:27:10;;;;;;;23.25;6.05;;;7.40;99.90;;;;;;2092450;28;20017;-70
2023/02/01 05:28:11;;;;;;;25.63;6.05;;;7.40;99.90;;;;;;2090476;28;20091;-70
2023/02/01 05:29:11;;;;;;;29.95;6.63;;;7.40;99.90;;;;;;2090881;28;20051;-70
2023/02/01 05:30:12;;;;;;;20.40;7.20;;;7.40;99.90;;;;;;2091425;28;20028;-70
2023/02/01 05:31:13;;;;;;;25.35;6.75;;;7.40;99.90;;;;;;2092497;28;20024;-70
2023/02/01 05:32:14;;;;;;;23.83;5.82;;;7.40;99.90;;;;;;2091289;28;20192;-70
2023/02/01 05:33:15;;;;;;;20.77;5.55;;;7.40;99.90;;;;;;2093966;28;20112;-70
2023/02/01 05:34:15;;;;;;;26.55;5.68;;;7.40;99.90;;;;;;2093420;28;20091;-70
2023/02/01 05:35:16;;;;;;;19.63;5.32;;;7.40;99.90;;;;;;2092400;28;20142;-70
2023/02/01 05:36:17;;;;;;;25.02;6.10;;;7.40;99.90;;;;;;2092658;28;20032;-70
2023/02/01 05:37:17;;;;;;;25.02;6.70;;;7.40;99.90;;;;;;2090419;28;20480;-70
2023/02/01 05:38:18;;;;;;;22.33;5.70;;;7.40;99.90;;;;;;2091912;28;20048;-71
2023/02/01 05:39:18;;;;;;;27.75;7.22;;;7.40;99.90;;;;;;2091613;28;20028;-70
2023/02/01 05:40:19;;;;;;;24.83;6.40;;;7.40;99.90;;;;;;2090581;28;20508;-70
2023/02/01 05:41:20;;;;;;;27.05;6.00;;;7.40;99.90;;;;;;2084933;28;20148;-70
2023/02/01 05:42:20;;;;;;;27.83;7.63;;;7.40;99.90;;;;;;2093421;28;20099;-70
2023/02/01 05:43:21;;;;;;;25.95;6.32;;;7.40;99.90;;;;;;2091773;28;20028;-70
2023/02/01 05:44:21;;;;;;;30.65;6.28;;;7.40;99.90;;;;;;2091942;28;20417;-70
2023/02/01 05:45:22;;;;;;;25.77;7.22;;;7.40;99.90;;;;;;2091829;28;20056;-70
2023/02/01 05:46:23;;;;;;;18.85;5.88;;;7.40;99.90;;;;;;2090694;28;20032;-70
2023/02/01 05:47:23;;;;;;;23.85;6.45;;;7.40;99.90;;;;;;2091203;28;20025;-70
2023/02/01 05:48:24;;;;;;;25.42;6.05;;;7.40;99.90;;;;;;2090828;28;20031;-70
2023/02/01 05:49:24;;;;;;;26.55;7.28;;;7.40;99.90;;;;;;2091315;28;20485;-70
2023/02/01 05:50:25;;;;;;;27.58;6.47;;;7.40;99.90;;;;;;2090756;28;20103;-70
2023/02/01 05:51:25;;;;;;;26.38;5.93;;;7.40;99.90;;;;;;2091472;28;20086;-70
2023/02/01 05:52:26;;;;;;;24.48;6.35;;;7.40;99.90;;;;;;2091254;28;20025;-70
2023/02/01 05:53:26;;;;;;;21.15;6.30;;;7.40;99.90;;;;;;2090929;28;20029;-70
2023/02/01 05:54:27;;;;;;;22.10;5.45;;;7.40;99.90;;;;;;2092153;28;20753;-70
2023/02/01 05:55:28;;;;;;;22.73;5.40;;;7.40;99.90;;;;;;2091112;28;20624;-70
2023/02/01 05:56:28;;;;;;;20.25;5.32;;;7.40;99.90;;;;;;2089015;28;20024;-71